sensor_id;sensor_type;location;lat;lon;timestamp;pressure;altitude;pressure_sealevel;temperature;humidity
7052;BME280;3567;52.444;13.556;2023-02-28T00:00:32;102765.31;;;0.41;96.03
7052;BME280;3567;52.444;13.556;2023-02-28T00:02:58;102763.31;;;0.44;95.55
7052;BME280;3567;52.444;13.556;2023-02-28T00:05:25;102774.22;;;0.51;95.81
7052;BME280;3567;52.444;13.556;2023-02-28T00:07:51;102768.13;;;0.50;96.29
7052;BME280;3567;52.444;13.556;2023-02-28T00:10:21;102764.53;;;0.51;95.99
7052;BME280;3567;52.444;13.556;2023-02-28T00:12:49;102770.63;;;0.52;95.72
7052;BME280;3567;52.444;13.556;2023-02-28T00:15:15;102770.63;;;0.52;96.21
7052;BME280;3567;52.444;13.556;2023-02-28T00:17:40;102770.88;;;0.49;96.24
7052;BME280;3567;52.444;13.556;2023-02-28T00:20:07;102767.50;;;0.47;95.83
7052;BME280;3567;52.444;13.556;2023-02-28T00:22:36;102774.56;;;0.46;97.03
7052;BME280;3567;52.444;13.556;2023-02-28T00:25:02;102772.56;;;0.50;97.33
7052;BME280;3567;52.444;13.556;2023-02-28T00:27:28;102769.81;;;0.51;96.52
7052;BME280;3567;52.444;13.556;2023-02-28T00:29:54;102768.25;;;0.49;97.52
7052;BME280;3567;52.444;13.556;2023-02-28T00:32:19;102772.56;;;0.50;96.67
7052;BME280;3567;52.444;13.556;2023-02-28T00:34:45;102767.16;;;0.51;96.97
7052;BME280;3567;52.444;13.556;2023-02-28T00:37:10;102772.31;;;0.53;96.33
7052;BME280;3567;52.444;13.556;2023-02-28T00:39:37;102768.00;;;0.52;97.20
7052;BME280;3567;52.444;13.556;2023-02-28T00:42:03;102774.13;;;0.52;97.34
7052;BME280;3567;52.444;13.556;2023-02-28T00:44:30;102774.84;;;0.55;96.70
7052;BME280;3567;52.444;13.556;2023-02-28T00:46:56;102774.13;;;0.52;97.41
7052;BME280;3567;52.444;13.556;2023-02-28T00:49:22;102775.06;;;0.51;97.65
7052;BME280;3567;52.444;13.556;2023-02-28T00:51:48;102775.91;;;0.52;96.66
7052;BME280;3567;52.444;13.556;2023-02-28T00:54:14;102771.59;;;0.51;96.63
7052;BME280;3567;52.444;13.556;2023-02-28T00:56:39;102783.94;;;0.50;96.94
7052;BME280;3567;52.444;13.556;2023-02-28T00:59:04;102778.66;;;0.50;97.83
7052;BME280;3567;52.444;13.556;2023-02-28T01:01:30;102776.38;;;0.46;97.70
7052;BME280;3567;52.444;13.556;2023-02-28T01:03:56;102782.72;;;0.43;97.83
7052;BME280;3567;52.444;13.556;2023-02-28T01:06:21;102781.88;;;0.43;97.72
7052;BME280;3567;52.444;13.556;2023-02-28T01:08:47;102777.66;;;0.40;97.83
7052;BME280;3567;52.444;13.556;2023-02-28T01:11:15;102765.66;;;0.36;97.56
7052;BME280;3567;52.444;13.556;2023-02-28T01:13:42;102775.69;;;0.31;97.60
7052;BME280;3567;52.444;13.556;2023-02-28T01:16:07;102777.09;;;0.24;98.72
7052;BME280;3567;52.444;13.556;2023-02-28T01:18:33;102768.56;;;0.20;97.99
7052;BME280;3567;52.444;13.556;2023-02-28T01:20:58;102772.59;;;0.13;97.95
7052;BME280;3567;52.444;13.556;2023-02-28T01:23:27;102769.56;;;0.07;97.91
7052;BME280;3567;52.444;13.556;2023-02-28T01:25:53;102767.38;;;0.01;98.09
7052;BME280;3567;52.444;13.556;2023-02-28T01:28:18;102767.06;;;-0.08;98.53
7052;BME280;3567;52.444;13.556;2023-02-28T01:30:48;102762.44;;;-0.17;98.67
7052;BME280;3567;52.444;13.556;2023-02-28T01:33:13;102763.84;;;-0.24;98.50
7052;BME280;3567;52.444;13.556;2023-02-28T01:35:39;102762.47;;;-0.30;99.21
7052;BME280;3567;52.444;13.556;2023-02-28T01:38:04;102759.53;;;-0.38;98.20
7052;BME280;3567;52.444;13.556;2023-02-28T01:40:29;102758.50;;;-0.48;98.36
7052;BME280;3567;52.444;13.556;2023-02-28T01:42:55;102756.19;;;-0.52;100.00
7052;BME280;3567;52.444;13.556;2023-02-28T01:45:27;102758.06;;;-0.55;99.46
7052;BME280;3567;52.444;13.556;2023-02-28T01:47:57;102761.00;;;-0.59;100.00
7052;BME280;3567;52.444;13.556;2023-02-28T01:50:25;102759.66;;;-0.65;100.00
7052;BME280;3567;52.444;13.556;2023-02-28T01:52:54;102761.03;;;-0.72;100.00
7052;BME280;3567;52.444;13.556;2023-02-28T01:55:22;102759.53;;;-0.76;99.11
7052;BME280;3567;52.444;13.556;2023-02-28T01:57:55;102760.19;;;-0.85;100.00
7052;BME280;3567;52.444;13.556;2023-02-28T02:00:24;102762.06;;;-0.87;100.00
7052;BME280;3567;52.444;13.556;2023-02-28T02:02:55;102757.88;;;-0.90;100.00
7052;BME280;3567;52.444;13.556;2023-02-28T02:05:24;102760.50;;;-0.90;100.00
7052;BME280;3567;52.444;13.556;2023-02-28T02:07:52;102759.31;;;-0.86;100.00
7052;BME280;3567;52.444;13.556;2023-02-28T02:10:42;102758.47;;;-0.86;100.00
7052;BME280;3567;52.444;13.556;2023-02-28T02:27:05;102759.13;;;-0.95;100.00
7052;BME280;3567;52.444;13.556;2023-02-28T02:35:14;102752.16;;;-1.22;100.00
7052;BME280;3567;52.444;13.556;2023-02-28T02:37:50;102752.63;;;-1.29;100.00
7052;BME280;3567;52.444;13.556;2023-02-28T02:40:20;102758.41;;;-1.37;100.00
7052;BME280;3567;52.444;13.556;2023-02-28T02:43:00;102759.75;;;-1.44;100.00
7052;BME280;3567;52.444;13.556;2023-02-28T02:46:10;102750.59;;;-1.51;100.00
7052;BME280;3567;52.444;13.556;2023-02-28T02:48:30;102750.34;;;-1.61;100.00
7052;BME280;3567;52.444;13.556;2023-02-28T02:51:00;102756.22;;;-1.70;100.00
7052;BME280;3567;52.444;13.556;2023-02-28T02:53:33;102755.72;;;-1.77;100.00
7052;BME280;3567;52.444;13.556;2023-02-28T02:56:01;102757.81;;;-1.82;100.00
7052;BME280;3567;52.444;13.556;2023-02-28T02:58:31;102753.16;;;-1.91;100.00
7052;BME280;3567;52.444;13.556;2023-02-28T03:01:01;102753.53;;;-1.97;100.00
7052;BME280;3567;52.444;13.556;2023-02-28T03:03:29;102759.38;;;-2.06;100.00
7052;BME280;3567;52.444;13.556;2023-02-28T03:06:00;102756.09;;;-2.10;100.00
7052;BME280;3567;52.444;13.556;2023-02-28T03:08:28;102763.53;;;-2.17;100.00
7052;BME280;3567;52.444;13.556;2023-02-28T03:11:01;102764.81;;;-2.24;100.00
7052;BME280;3567;52.444;13.556;2023-02-28T03:18:52;102768.22;;;-2.36;100.00
7052;BME280;3567;52.444;13.556;2023-02-28T03:24:06;102768.13;;;-2.49;100.00
7052;BME280;3567;52.444;13.556;2023-02-28T03:26:38;102770.31;;;-2.55;100.00
7052;BME280;3567;52.444;13.556;2023-02-28T03:31:37;102775.72;;;-2.58;100.00
7052;BME280;3567;52.444;13.556;2023-02-28T03:34:09;102773.25;;;-2.61;100.00
7052;BME280;3567;52.444;13.556;2023-02-28T03:36:39;102772.63;;;-2.65;100.00
7052;BME280;3567;52.444;13.556;2023-02-28T03:39:23;102770.06;;;-2.67;100.00
7052;BME280;3567;52.444;13.556;2023-02-28T03:41:57;102771.28;;;-2.72;100.00
7052;BME280;3567;52.444;13.556;2023-02-28T03:44:38;102775.78;;;-2.74;100.00
7052;BME280;3567;52.444;13.556;2023-02-28T03:47:35;102776.91;;;-2.78;100.00
7052;BME280;3567;52.444;13.556;2023-02-28T03:53:05;102776.44;;;-2.85;100.00
7052;BME280;3567;52.444;13.556;2023-02-28T03:55:59;102772.13;;;-2.86;100.00
7052;BME280;3567;52.444;13.556;2023-02-28T03:59:14;102778.50;;;-2.90;100.00
7052;BME280;3567;52.444;13.556;2023-02-28T04:03:43;102774.97;;;-3.05;100.00
7052;BME280;3567;52.444;13.556;2023-02-28T04:06:15;102775.09;;;-3.06;100.00
7052;BME280;3567;52.444;13.556;2023-02-28T04:08:42;102781.38;;;-3.09;100.00
7052;BME280;3567;52.444;13.556;2023-02-28T04:11:16;102781.44;;;-3.10;100.00
7052;BME280;3567;52.444;13.556;2023-02-28T04:13:43;102781.53;;;-3.12;100.00
7052;BME280;3567;52.444;13.556;2023-02-28T04:16:09;102779.34;;;-3.20;100.00
7052;BME280;3567;52.444;13.556;2023-02-28T04:18:41;102784.03;;;-3.25;100.00
7052;BME280;3567;52.444;13.556;2023-02-28T04:21:10;102778.94;;;-3.28;100.00
7052;BME280;3567;52.444;13.556;2023-02-28T04:23:36;102779.94;;;-3.30;100.00
7052;BME280;3567;52.444;13.556;2023-02-28T04:26:02;102782.78;;;-3.33;100.00
7052;BME280;3567;52.444;13.556;2023-02-28T04:28:27;102784.44;;;-3.32;100.00
7052;BME280;3567;52.444;13.556;2023-02-28T04:30:57;102782.88;;;-3.35;100.00
7052;BME280;3567;52.444;13.556;2023-02-28T04:33:23;102793.59;;;-3.39;100.00
7052;BME280;3567;52.444;13.556;2023-02-28T04:36:00;102782.63;;;-3.46;100.00
7052;BME280;3567;52.444;13.556;2023-02-28T04:38:25;102781.84;;;-3.48;100.00
7052;BME280;3567;52.444;13.556;2023-02-28T04:40:50;102785.56;;;-3.52;100.00
7052;BME280;3567;52.444;13.556;2023-02-28T04:43:16;102787.53;;;-3.56;100.00
7052;BME280;3567;52.444;13.556;2023-02-28T04:45:41;102795.41;;;-3.56;100.00
7052;BME280;3567;52.444;13.556;2023-02-28T04:48:07;102790.22;;;-3.57;100.00
7052;BME280;3567;52.444;13.556;2023-02-28T04:50:32;102791.94;;;-3.56;100.00
7052;BME280;3567;52.444;13.556;2023-02-28T04:52:58;102793.72;;;-3.57;100.00
7052;BME280;3567;52.444;13.556;2023-02-28T04:55:23;102784.41;;;-3.62;100.00
7052;BME280;3567;52.444;13.556;2023-02-28T04:57:49;102791.50;;;-3.64;100.00
7052;BME280;3567;52.444;13.556;2023-02-28T05:00:14;102796.00;;;-3.66;100.00
7052;BME280;3567;52.444;13.556;2023-02-28T05:02:42;102801.16;;;-3.65;100.00
7052;BME280;3567;52.444;13.556;2023-02-28T05:05:08;102803.03;;;-3.67;100.00
7052;BME280;3567;52.444;13.556;2023-02-28T05:07:33;102793.38;;;-3.66;100.00
7052;BME280;3567;52.444;13.556;2023-02-28T05:09:58;102805.69;;;-3.69;100.00
7052;BME280;3567;52.444;13.556;2023-02-28T05:12:24;102810.19;;;-3.71;100.00
7052;BME280;3567;52.444;13.556;2023-02-28T05:14:50;102806.88;;;-3.74;100.00
7052;BME280;3567;52.444;13.556;2023-02-28T05:17:15;102810.59;;;-3.78;100.00
7052;BME280;3567;52.444;13.556;2023-02-28T05:19:40;102816.84;;;-3.81;100.00
7052;BME280;3567;52.444;13.556;2023-02-28T05:22:13;102809.09;;;-3.82;100.00
7052;BME280;3567;52.444;13.556;2023-02-28T05:24:38;102810.94;;;-3.84;100.00
7052;BME280;3567;52.444;13.556;2023-02-28T05:27:03;102811.78;;;-3.84;100.00
7052;BME280;3567;52.444;13.556;2023-02-28T05:29:29;102810.09;;;-3.85;100.00
7052;BME280;3567;52.444;13.556;2023-02-28T05:31:54;102810.28;;;-3.88;100.00
7052;BME280;3567;52.444;13.556;2023-02-28T05:34:20;102809.69;;;-3.93;100.00
7052;BME280;3567;52.444;13.556;2023-02-28T05:36:45;102811.53;;;-3.95;100.00
7052;BME280;3567;52.444;13.556;2023-02-28T05:39:11;102815.16;;;-3.98;100.00
7052;BME280;3567;52.444;13.556;2023-02-28T05:41:39;102814.31;;;-3.98;100.00
7052;BME280;3567;52.444;13.556;2023-02-28T05:44:05;102818.88;;;-4.02;100.00
7052;BME280;3567;52.444;13.556;2023-02-28T05:46:30;102812.88;;;-4.04;100.00
7052;BME280;3567;52.444;13.556;2023-02-28T05:48:56;102820.78;;;-4.05;100.00
7052;BME280;3567;52.444;13.556;2023-02-28T05:51:23;102823.59;;;-4.08;100.00
7052;BME280;3567;52.444;13.556;2023-02-28T05:53:48;102823.00;;;-4.13;100.00
7052;BME280;3567;52.444;13.556;2023-02-28T05:56:14;102824.78;;;-4.14;100.00
7052;BME280;3567;52.444;13.556;2023-02-28T05:58:40;102826.59;;;-4.16;100.00
7052;BME280;3567;52.444;13.556;2023-02-28T06:01:38;102829.16;;;-4.14;100.00
7052;BME280;3567;52.444;13.556;2023-02-28T06:04:06;102832.84;;;-4.18;100.00
7052;BME280;3567;52.444;13.556;2023-02-28T06:06:32;102834.72;;;-4.20;100.00
7052;BME280;3567;52.444;13.556;2023-02-28T06:08:59;102837.41;;;-4.22;100.00
7052;BME280;3567;52.444;13.556;2023-02-28T06:11:25;102834.72;;;-4.20;100.00
7052;BME280;3567;52.444;13.556;2023-02-28T06:13:56;102836.22;;;-4.16;100.00
7052;BME280;3567;52.444;13.556;2023-02-28T06:16:23;102833.63;;;-4.16;100.00
7052;BME280;3567;52.444;13.556;2023-02-28T06:18:48;102836.16;;;-4.15;100.00
7052;BME280;3567;52.444;13.556;2023-02-28T06:21:14;102837.94;;;-4.15;100.00
7052;BME280;3567;52.444;13.556;2023-02-28T06:23:39;102839.63;;;-4.14;100.00
7052;BME280;3567;52.444;13.556;2023-02-28T06:26:05;102847.25;;;-4.10;100.00
7052;BME280;3567;52.444;13.556;2023-02-28T06:28:30;102852.22;;;-4.05;100.00
7052;BME280;3567;52.444;13.556;2023-02-28T06:30:55;102841.72;;;-4.05;100.00
7052;BME280;3567;52.444;13.556;2023-02-28T06:33:21;102846.72;;;-4.01;100.00
7052;BME280;3567;52.444;13.556;2023-02-28T06:35:49;102843.97;;;-3.98;100.00
7052;BME280;3567;52.444;13.556;2023-02-28T06:38:15;102855.78;;;-3.90;100.00
7052;BME280;3567;52.444;13.556;2023-02-28T06:40:40;102865.84;;;-3.83;100.00
7052;BME280;3567;52.444;13.556;2023-02-28T06:43:06;102858.25;;;-3.72;100.00
7052;BME280;3567;52.444;13.556;2023-02-28T06:45:32;102865.34;;;-3.58;100.00
7052;BME280;3567;52.444;13.556;2023-02-28T06:47:57;102857.75;;;-3.47;100.00
7052;BME280;3567;52.444;13.556;2023-02-28T06:50:23;102867.72;;;-3.37;100.00
7052;BME280;3567;52.444;13.556;2023-02-28T06:52:48;102866.38;;;-3.29;100.00
7052;BME280;3567;52.444;13.556;2023-02-28T06:55:19;102862.47;;;-3.22;100.00
7052;BME280;3567;52.444;13.556;2023-02-28T06:57:44;102869.81;;;-3.12;100.00
7052;BME280;3567;52.444;13.556;2023-02-28T07:00:10;102874.59;;;-3.05;100.00
7052;BME280;3567;52.444;13.556;2023-02-28T07:02:36;102868.16;;;-2.99;100.00
7052;BME280;3567;52.444;13.556;2023-02-28T07:05:03;102871.38;;;-2.94;100.00
7052;BME280;3567;52.444;13.556;2023-02-28T07:07:29;102880.50;;;-2.85;100.00
7052;BME280;3567;52.444;13.556;2023-02-28T07:09:54;102870.50;;;-2.79;100.00
7052;BME280;3567;52.444;13.556;2023-02-28T07:12:20;102871.66;;;-2.69;100.00
7052;BME280;3567;52.444;13.556;2023-02-28T07:17:12;102874.63;;;-2.45;100.00
7052;BME280;3567;52.444;13.556;2023-02-28T07:19:38;102876.41;;;-2.31;100.00
7052;BME280;3567;52.444;13.556;2023-02-28T07:22:04;102868.72;;;-2.20;100.00
7052;BME280;3567;52.444;13.556;2023-02-28T07:24:30;102871.63;;;-2.10;100.00
7052;BME280;3567;52.444;13.556;2023-02-28T07:26:56;102867.63;;;-2.01;100.00
7052;BME280;3567;52.444;13.556;2023-02-28T07:29:21;102873.78;;;-1.88;100.00
7052;BME280;3567;52.444;13.556;2023-02-28T07:31:47;102881.66;;;-1.74;100.00
7052;BME280;3567;52.444;13.556;2023-02-28T07:34:15;102879.88;;;-1.59;100.00
7052;BME280;3567;52.444;13.556;2023-02-28T07:36:40;102884.22;;;-1.45;100.00
7052;BME280;3567;52.444;13.556;2023-02-28T07:39:05;102877.25;;;-1.32;100.00
7052;BME280;3567;52.444;13.556;2023-02-28T07:41:31;102880.88;;;-1.20;100.00
7052;BME280;3567;52.444;13.556;2023-02-28T07:43:59;102883.66;;;-1.09;100.00
7052;BME280;3567;52.444;13.556;2023-02-28T07:46:25;102878.44;;;-0.96;100.00
7052;BME280;3567;52.444;13.556;2023-02-28T07:48:51;102877.22;;;-0.78;100.00
7052;BME280;3567;52.444;13.556;2023-02-28T07:51:18;102884.66;;;-0.58;100.00
7052;BME280;3567;52.444;13.556;2023-02-28T07:53:43;102882.66;;;-0.41;100.00
7052;BME280;3567;52.444;13.556;2023-02-28T07:56:08;102892.03;;;-0.24;100.00
7052;BME280;3567;52.444;13.556;2023-02-28T07:58:35;102891.84;;;-0.09;99.65
7052;BME280;3567;52.444;13.556;2023-02-28T08:01:06;102889.94;;;0.06;99.42
7052;BME280;3567;52.444;13.556;2023-02-28T08:03:32;102885.47;;;0.19;99.16
7052;BME280;3567;52.444;13.556;2023-02-28T08:05:57;102892.41;;;0.33;96.87
7052;BME280;3567;52.444;13.556;2023-02-28T08:08:22;102894.91;;;0.47;95.76
7052;BME280;3567;52.444;13.556;2023-02-28T08:10:48;102899.06;;;0.63;96.40
7052;BME280;3567;52.444;13.556;2023-02-28T08:13:14;102897.00;;;0.79;93.81
7052;BME280;3567;52.444;13.556;2023-02-28T08:15:41;102894.84;;;0.97;93.42
7052;BME280;3567;52.444;13.556;2023-02-28T08:18:07;102899.53;;;1.04;90.99
7052;BME280;3567;52.444;13.556;2023-02-28T08:20:33;102889.66;;;1.19;90.56
7052;BME280;3567;52.444;13.556;2023-02-28T08:22:58;102886.84;;;1.34;89.69
7052;BME280;3567;52.444;13.556;2023-02-28T08:25:23;102887.72;;;1.45;89.13
7052;BME280;3567;52.444;13.556;2023-02-28T08:27:51;102891.09;;;1.58;87.64
7052;BME280;3567;52.444;13.556;2023-02-28T08:30:17;102890.75;;;1.74;86.72
7052;BME280;3567;52.444;13.556;2023-02-28T08:32:42;102894.50;;;1.94;81.72
7052;BME280;3567;52.444;13.556;2023-02-28T08:35:08;102893.53;;;2.18;82.63
7052;BME280;3567;52.444;13.556;2023-02-28T08:37:34;102897.75;;;2.31;80.56
7052;BME280;3567;52.444;13.556;2023-02-28T08:39:59;102897.38;;;2.47;79.30
7052;BME280;3567;52.444;13.556;2023-02-28T08:42:25;102884.09;;;2.70;76.49
7052;BME280;3567;52.444;13.556;2023-02-28T08:44:50;102894.84;;;3.00;78.08
7052;BME280;3567;52.444;13.556;2023-02-28T08:47:16;102896.66;;;3.32;76.13
7052;BME280;3567;52.444;13.556;2023-02-28T08:49:41;102897.56;;;3.63;76.14
7052;BME280;3567;52.444;13.556;2023-02-28T08:52:06;102901.34;;;3.91;75.29
7052;BME280;3567;52.444;13.556;2023-02-28T08:54:32;102894.91;;;3.93;72.99
7052;BME280;3567;52.444;13.556;2023-02-28T08:56:58;102893.56;;;3.99;72.68
7052;BME280;3567;52.444;13.556;2023-02-28T08:59:23;102889.13;;;4.09;72.18
7052;BME280;3567;52.444;13.556;2023-02-28T09:01:49;102887.22;;;4.11;70.25
7052;BME280;3567;52.444;13.556;2023-02-28T09:04:14;102892.66;;;4.19;71.62
7052;BME280;3567;52.444;13.556;2023-02-28T09:06:39;102890.59;;;4.23;69.75
7052;BME280;3567;52.444;13.556;2023-02-28T09:09:05;102885.66;;;4.49;69.68
7052;BME280;3567;52.444;13.556;2023-02-28T09:11:33;102886.56;;;4.88;68.13
7052;BME280;3567;52.444;13.556;2023-02-28T09:14:00;102890.19;;;5.16;67.66
7052;BME280;3567;52.444;13.556;2023-02-28T09:16:26;102876.06;;;5.35;66.15
7052;BME280;3567;52.444;13.556;2023-02-28T09:18:51;102885.97;;;5.52;65.90
7052;BME280;3567;52.444;13.556;2023-02-28T09:21:18;102871.97;;;5.60;64.59
7052;BME280;3567;52.444;13.556;2023-02-28T09:23:46;102876.97;;;5.83;63.38
7052;BME280;3567;52.444;13.556;2023-02-28T09:26:19;102881.06;;;6.14;63.61
7052;BME280;3567;52.444;13.556;2023-02-28T09:28:45;102874.72;;;6.52;62.80
7052;BME280;3567;52.444;13.556;2023-02-28T09:31:17;102867.88;;;6.86;60.21
7052;BME280;3567;52.444;13.556;2023-02-28T09:33:46;102864.56;;;6.83;59.59
7052;BME280;3567;52.444;13.556;2023-02-28T09:36:12;102863.56;;;7.20;59.19
7052;BME280;3567;52.444;13.556;2023-02-28T09:38:37;102855.31;;;7.14;57.12
7052;BME280;3567;52.444;13.556;2023-02-28T09:41:10;102843.69;;;6.97;55.44
7052;BME280;3567;52.444;13.556;2023-02-28T09:43:38;102847.59;;;7.28;54.75
7052;BME280;3567;52.444;13.556;2023-02-28T09:48:47;102821.13;;;8.29;49.21
7052;BME280;3567;52.444;13.556;2023-02-28T09:51:30;102830.09;;;8.62;49.66
7052;BME280;3567;52.444;13.556;2023-02-28T09:53:58;102828.25;;;8.55;48.73
7052;BME280;3567;52.444;13.556;2023-02-28T09:56:31;102825.53;;;8.47;47.17
7052;BME280;3567;52.444;13.556;2023-02-28T10:07:03;102816.91;;;7.76;46.36
7052;BME280;3567;52.444;13.556;2023-02-28T10:09:33;102827.72;;;8.01;46.99
7052;BME280;3567;52.444;13.556;2023-02-28T10:12:05;102818.81;;;8.26;47.76
7052;BME280;3567;52.444;13.556;2023-02-28T10:14:33;102827.44;;;8.20;47.76
7052;BME280;3567;52.444;13.556;2023-02-28T10:17:02;102825.75;;;8.53;46.65
7052;BME280;3567;52.444;13.556;2023-02-28T10:19:40;102814.06;;;8.79;45.68
7052;BME280;3567;52.444;13.556;2023-02-28T10:22:15;102805.22;;;9.19;45.74
7052;BME280;3567;52.444;13.556;2023-02-28T10:24:48;102808.22;;;9.40;44.47
7052;BME280;3567;52.444;13.556;2023-02-28T10:29:47;102804.06;;;8.97;45.63
7052;BME280;3567;52.444;13.556;2023-02-28T10:32:18;102800.22;;;9.00;44.55
7052;BME280;3567;52.444;13.556;2023-02-28T10:34:49;102806.75;;;8.97;43.76
7052;BME280;3567;52.444;13.556;2023-02-28T10:37:16;102791.50;;;8.49;43.21
7052;BME280;3567;52.444;13.556;2023-02-28T10:39:46;102802.78;;;8.26;43.20
7052;BME280;3567;52.444;13.556;2023-02-28T10:42:38;102800.66;;;8.46;43.60
7052;BME280;3567;52.444;13.556;2023-02-28T10:45:11;102807.72;;;9.04;43.54
7052;BME280;3567;52.444;13.556;2023-02-28T10:47:48;102793.94;;;9.64;43.10
7052;BME280;3567;52.444;13.556;2023-02-28T10:53:10;102782.75;;;9.61;41.96
7052;BME280;3567;52.444;13.556;2023-02-28T10:55:39;102774.59;;;9.46;41.75
7052;BME280;3567;52.444;13.556;2023-02-28T10:58:20;102769.47;;;9.28;41.31
7052;BME280;3567;52.444;13.556;2023-02-28T11:00:46;102760.66;;;8.95;39.71
7052;BME280;3567;52.444;13.556;2023-02-28T11:03:33;102757.13;;;8.54;39.89
7052;BME280;3567;52.444;13.556;2023-02-28T11:06:05;102766.47;;;8.42;41.87
7052;BME280;3567;52.444;13.556;2023-02-28T11:08:32;102772.16;;;8.55;42.12
7052;BME280;3567;52.444;13.556;2023-02-28T11:11:06;102769.47;;;8.38;42.01
7052;BME280;3567;52.444;13.556;2023-02-28T11:13:34;102760.97;;;8.76;41.36
7052;BME280;3567;52.444;13.556;2023-02-28T11:16:05;102756.03;;;9.36;41.32
7052;BME280;3567;52.444;13.556;2023-02-28T11:18:39;102751.97;;;9.57;40.95
7052;BME280;3567;52.444;13.556;2023-02-28T11:21:06;102741.28;;;9.57;40.34
7052;BME280;3567;52.444;13.556;2023-02-28T11:23:34;102738.66;;;9.40;40.23
7052;BME280;3567;52.444;13.556;2023-02-28T11:26:03;102732.34;;;9.25;40.52
7052;BME280;3567;52.444;13.556;2023-02-28T11:28:39;102740.19;;;9.74;40.52
7052;BME280;3567;52.444;13.556;2023-02-28T11:33:43;102736.31;;;10.24;40.20
7052;BME280;3567;52.444;13.556;2023-02-28T11:36:22;102731.84;;;9.69;37.95
7052;BME280;3567;52.444;13.556;2023-02-28T11:38:53;102741.34;;;9.40;40.29
7052;BME280;3567;52.444;13.556;2023-02-28T11:41:45;102743.69;;;9.35;39.43
7052;BME280;3567;52.444;13.556;2023-02-28T11:46:52;102738.97;;;9.54;40.40
7052;BME280;3567;52.444;13.556;2023-02-28T11:52:34;102734.38;;;10.33;38.58
7052;BME280;3567;52.444;13.556;2023-02-28T11:55:16;102733.06;;;9.66;38.35
7052;BME280;3567;52.444;13.556;2023-02-28T11:57:56;102741.03;;;9.75;39.46
7052;BME280;3567;52.444;13.556;2023-02-28T12:03:43;102740.13;;;10.30;39.82
7052;BME280;3567;52.444;13.556;2023-02-28T12:15:16;102728.47;;;10.83;38.79
7052;BME280;3567;52.444;13.556;2023-02-28T12:18:16;102722.44;;;11.19;37.24
7052;BME280;3567;52.444;13.556;2023-02-28T12:21:15;102711.72;;;10.81;37.59
7052;BME280;3567;52.444;13.556;2023-02-28T12:23:54;102712.59;;;10.59;38.21
7052;BME280;3567;52.444;13.556;2023-02-28T12:28:54;102710.88;;;10.12;38.67
7052;BME280;3567;52.444;13.556;2023-02-28T12:31:27;102705.19;;;9.84;38.68
7052;BME280;3567;52.444;13.556;2023-02-28T12:33:56;102706.72;;;10.09;38.86
7052;BME280;3567;52.444;13.556;2023-02-28T12:36:24;102692.00;;;9.82;38.32
7052;BME280;3567;52.444;13.556;2023-02-28T12:39:03;102693.75;;;9.98;38.74
7052;BME280;3567;52.444;13.556;2023-02-28T12:41:46;102696.22;;;10.08;38.07
7052;BME280;3567;52.444;13.556;2023-02-28T12:47:13;102683.16;;;10.05;38.86
7052;BME280;3567;52.444;13.556;2023-02-28T12:52:05;102667.94;;;9.74;39.03
7052;BME280;3567;52.444;13.556;2023-02-28T12:55:27;102652.88;;;9.81;38.34
7052;BME280;3567;52.444;13.556;2023-02-28T12:58:08;102642.28;;;9.88;37.99
7052;BME280;3567;52.444;13.556;2023-02-28T13:00:43;102647.72;;;9.71;38.58
7052;BME280;3567;52.444;13.556;2023-02-28T13:06:00;102638.66;;;10.04;38.24
7052;BME280;3567;52.444;13.556;2023-02-28T13:09:03;102638.66;;;10.04;38.13
7052;BME280;3567;52.444;13.556;2023-02-28T13:14:15;102646.31;;;9.53;38.81
7052;BME280;3567;52.444;13.556;2023-02-28T13:19:30;102641.97;;;9.12;39.69
7052;BME280;3567;52.444;13.556;2023-02-28T13:21:57;102660.84;;;9.19;40.80
7052;BME280;3567;52.444;13.556;2023-02-28T13:24:45;102653.75;;;8.87;38.89
7052;BME280;3567;52.444;13.556;2023-02-28T13:29:50;102654.91;;;8.92;40.91
7052;BME280;3567;52.444;13.556;2023-02-28T13:39:58;102647.69;;;9.49;38.92
7052;BME280;3567;52.444;13.556;2023-02-28T13:42:34;102644.66;;;9.52;39.07
7052;BME280;3567;52.444;13.556;2023-02-28T13:47:39;102644.22;;;9.40;40.26
7052;BME280;3567;52.444;13.556;2023-02-28T13:53:03;102638.63;;;9.10;40.60
7052;BME280;3567;52.444;13.556;2023-02-28T14:01:34;102635.09;;;8.38;40.25
7052;BME280;3567;52.444;13.556;2023-02-28T14:06:51;102641.75;;;8.66;41.43
7052;BME280;3567;52.444;13.556;2023-02-28T14:09:24;102637.56;;;8.72;41.19
7052;BME280;3567;52.444;13.556;2023-02-28T14:11:51;102635.25;;;8.61;40.99
7052;BME280;3567;52.444;13.556;2023-02-28T14:17:14;102638.09;;;8.51;40.10
7052;BME280;3567;52.444;13.556;2023-02-28T14:19:44;102638.94;;;8.44;41.29
7052;BME280;3567;52.444;13.556;2023-02-28T14:27:21;102643.56;;;8.09;41.22
7052;BME280;3567;52.444;13.556;2023-02-28T14:35:16;102644.47;;;7.17;43.47
7052;BME280;3567;52.444;13.556;2023-02-28T14:37:45;102642.81;;;6.90;42.74
7052;BME280;3567;52.444;13.556;2023-02-28T14:40:26;102634.78;;;6.55;43.60
7052;BME280;3567;52.444;13.556;2023-02-28T14:43:00;102640.81;;;6.40;44.34
7052;BME280;3567;52.444;13.556;2023-02-28T14:45:31;102644.22;;;6.32;44.40
7052;BME280;3567;52.444;13.556;2023-02-28T14:47:58;102655.66;;;6.24;45.35
7052;BME280;3567;52.444;13.556;2023-02-28T14:50:29;102648.88;;;6.12;45.05
7052;BME280;3567;52.444;13.556;2023-02-28T14:52:55;102646.16;;;6.04;44.82
7052;BME280;3567;52.444;13.556;2023-02-28T14:55:44;102660.44;;;6.03;46.22
7052;BME280;3567;52.444;13.556;2023-02-28T14:58:22;102652.75;;;6.00;46.21
7052;BME280;3567;52.444;13.556;2023-02-28T15:00:50;102662.72;;;5.98;46.24
7052;BME280;3567;52.444;13.556;2023-02-28T15:03:20;102659.34;;;5.96;46.60
7052;BME280;3567;52.444;13.556;2023-02-28T15:05:57;102656.59;;;5.88;46.33
7052;BME280;3567;52.444;13.556;2023-02-28T15:08:24;102658.03;;;5.82;45.91
7052;BME280;3567;52.444;13.556;2023-02-28T15:13:42;102649.22;;;5.82;46.33
7052;BME280;3567;52.444;13.556;2023-02-28T15:16:22;102645.47;;;5.74;46.81
7052;BME280;3567;52.444;13.556;2023-02-28T15:18:56;102644.41;;;5.67;47.82
7052;BME280;3567;52.444;13.556;2023-02-28T15:21:26;102652.09;;;5.70;47.44
7052;BME280;3567;52.444;13.556;2023-02-28T15:26:43;102658.03;;;5.82;47.68